sensor_id;sensor_type;location;lat;lon;timestamp;temperature;humidity
6948;DHT22;3513;47.664;9.162;2023-09-07T00:00:36;17.10;99.90
6948;DHT22;3513;47.664;9.162;2023-09-07T00:03:01;17.10;99.90
6948;DHT22;3513;47.664;9.162;2023-09-07T00:05:27;17.10;99.90
6948;DHT22;3513;47.664;9.162;2023-09-07T00:07:53;17.20;99.90
6948;DHT22;3513;47.664;9.162;2023-09-07T00:10:18;17.10;99.90
6948;DHT22;3513;47.664;9.162;2023-09-07T00:12:44;17.10;99.90
6948;DHT22;3513;47.664;9.162;2023-09-07T00:15:10;17.10;99.90
6948;DHT22;3513;47.664;9.162;2023-09-07T00:17:36;17.00;99.90
6948;DHT22;3513;47.664;9.162;2023-09-07T00:20:02;17.00;99.90
6948;DHT22;3513;47.664;9.162;2023-09-07T00:22:40;16.90;99.90
6948;DHT22;3513;47.664;9.162;2023-09-07T00:25:06;16.80;99.90
6948;DHT22;3513;47.664;9.162;2023-09-07T00:27:34;16.80;99.90
6948;DHT22;3513;47.664;9.162;2023-09-07T00:30:00;16.80;99.90
6948;DHT22;3513;47.664;9.162;2023-09-07T00:32:26;16.80;99.90
6948;DHT22;3513;47.664;9.162;2023-09-07T00:34:51;16.80;99.90
6948;DHT22;3513;47.664;9.162;2023-09-07T00:37:17;16.80;99.90
6948;DHT22;3513;47.664;9.162;2023-09-07T00:39:43;16.90;99.90
6948;DHT22;3513;47.664;9.162;2023-09-07T00:42:08;16.90;99.90
6948;DHT22;3513;47.664;9.162;2023-09-07T00:44:34;16.80;99.90
6948;DHT22;3513;47.664;9.162;2023-09-07T00:46:59;16.80;99.90
6948;DHT22;3513;47.664;9.162;2023-09-07T00:49:25;16.70;99.90
6948;DHT22;3513;47.664;9.162;2023-09-07T00:51:52;16.70;99.90
6948;DHT22;3513;47.664;9.162;2023-09-07T00:54:18;16.70;99.90
6948;DHT22;3513;47.664;9.162;2023-09-07T00:56:44;16.70;99.90
6948;DHT22;3513;47.664;9.162;2023-09-07T00:59:11;16.60;99.90
6948;DHT22;3513;47.664;9.162;2023-09-07T01:01:37;16.70;99.90
6948;DHT22;3513;47.664;9.162;2023-09-07T01:04:02;16.60;99.90
6948;DHT22;3513;47.664;9.162;2023-09-07T01:06:42;16.60;99.90
6948;DHT22;3513;47.664;9.162;2023-09-07T01:09:17;16.50;99.90
6948;DHT22;3513;47.664;9.162;2023-09-07T01:11:44;16.40;99.90
6948;DHT22;3513;47.664;9.162;2023-09-07T01:14:10;16.40;99.90
6948;DHT22;3513;47.664;9.162;2023-09-07T01:16:36;16.40;99.90
6948;DHT22;3513;47.664;9.162;2023-09-07T01:19:07;16.40;99.90
6948;DHT22;3513;47.664;9.162;2023-09-07T01:21:37;16.30;99.90
6948;DHT22;3513;47.664;9.162;2023-09-07T01:24:08;16.30;99.90
6948;DHT22;3513;47.664;9.162;2023-09-07T01:26:35;16.30;99.90
6948;DHT22;3513;47.664;9.162;2023-09-07T01:29:07;16.20;99.90
6948;DHT22;3513;47.664;9.162;2023-09-07T01:31:37;16.20;99.90
6948;DHT22;3513;47.664;9.162;2023-09-07T01:34:03;16.20;99.90
6948;DHT22;3513;47.664;9.162;2023-09-07T01:36:29;16.20;99.90
6948;DHT22;3513;47.664;9.162;2023-09-07T01:38:55;16.20;99.90
6948;DHT22;3513;47.664;9.162;2023-09-07T01:41:21;16.10;99.90
6948;DHT22;3513;47.664;9.162;2023-09-07T01:43:46;16.10;99.90
6948;DHT22;3513;47.664;9.162;2023-09-07T01:46:12;16.10;99.90
6948;DHT22;3513;47.664;9.162;2023-09-07T01:48:38;16.10;99.90
6948;DHT22;3513;47.664;9.162;2023-09-07T01:51:03;16.10;99.90
6948;DHT22;3513;47.664;9.162;2023-09-07T01:53:29;16.10;99.90
6948;DHT22;3513;47.664;9.162;2023-09-07T01:55:55;16.10;99.90
6948;DHT22;3513;47.664;9.162;2023-09-07T01:58:24;16.10;99.90
6948;DHT22;3513;47.664;9.162;2023-09-07T02:00:51;16.10;99.90
6948;DHT22;3513;47.664;9.162;2023-09-07T02:03:17;16.10;99.90
6948;DHT22;3513;47.664;9.162;2023-09-07T02:05:45;16.10;99.90
6948;DHT22;3513;47.664;9.162;2023-09-07T02:08:10;16.00;99.90
6948;DHT22;3513;47.664;9.162;2023-09-07T02:10:37;16.00;99.90
6948;DHT22;3513;47.664;9.162;2023-09-07T02:13:03;15.90;99.90
6948;DHT22;3513;47.664;9.162;2023-09-07T02:15:29;15.90;99.90
6948;DHT22;3513;47.664;9.162;2023-09-07T02:17:55;15.90;99.90
6948;DHT22;3513;47.664;9.162;2023-09-07T02:20:20;15.80;99.90
6948;DHT22;3513;47.664;9.162;2023-09-07T02:22:46;15.80;99.90
6948;DHT22;3513;47.664;9.162;2023-09-07T02:25:12;15.90;99.90
6948;DHT22;3513;47.664;9.162;2023-09-07T02:27:37;15.80;99.90
6948;DHT22;3513;47.664;9.162;2023-09-07T02:30:04;15.40;99.90
6948;DHT22;3513;47.664;9.162;2023-09-07T02:32:31;15.80;99.90
6948;DHT22;3513;47.664;9.162;2023-09-07T02:34:57;15.80;99.90
6948;DHT22;3513;47.664;9.162;2023-09-07T02:37:23;15.80;99.90
6948;DHT22;3513;47.664;9.162;2023-09-07T02:39:48;15.80;99.90
6948;DHT22;3513;47.664;9.162;2023-09-07T02:42:14;15.80;99.90
6948;DHT22;3513;47.664;9.162;2023-09-07T02:44:39;15.70;99.90
6948;DHT22;3513;47.664;9.162;2023-09-07T02:47:05;15.70;99.90
6948;DHT22;3513;47.664;9.162;2023-09-07T02:49:31;15.70;99.90
6948;DHT22;3513;47.664;9.162;2023-09-07T02:51:56;15.70;99.90
6948;DHT22;3513;47.664;9.162;2023-09-07T02:54:23;15.70;99.90
6948;DHT22;3513;47.664;9.162;2023-09-07T02:56:49;15.70;99.90
6948;DHT22;3513;47.664;9.162;2023-09-07T02:59:14;15.70;99.90
6948;DHT22;3513;47.664;9.162;2023-09-07T03:01:40;15.70;99.90
6948;DHT22;3513;47.664;9.162;2023-09-07T03:04:06;15.60;99.90
6948;DHT22;3513;47.664;9.162;2023-09-07T03:06:33;15.60;99.90
6948;DHT22;3513;47.664;9.162;2023-09-07T03:08:58;15.60;99.90
6948;DHT22;3513;47.664;9.162;2023-09-07T03:11:24;15.50;99.90
6948;DHT22;3513;47.664;9.162;2023-09-07T03:13:50;15.50;99.90
6948;DHT22;3513;47.664;9.162;2023-09-07T03:16:15;15.50;99.90
6948;DHT22;3513;47.664;9.162;2023-09-07T03:18:41;15.40;99.90
6948;DHT22;3513;47.664;9.162;2023-09-07T03:21:06;15.40;99.90
6948;DHT22;3513;47.664;9.162;2023-09-07T03:23:33;15.40;99.90
6948;DHT22;3513;47.664;9.162;2023-09-07T03:25:59;15.40;99.90
6948;DHT22;3513;47.664;9.162;2023-09-07T03:28:25;15.40;99.90
6948;DHT22;3513;47.664;9.162;2023-09-07T03:30:51;15.40;99.90
6948;DHT22;3513;47.664;9.162;2023-09-07T03:33:17;15.40;99.90
6948;DHT22;3513;47.664;9.162;2023-09-07T03:35:43;15.40;99.90
6948;DHT22;3513;47.664;9.162;2023-09-07T03:38:08;15.40;99.90
6948;DHT22;3513;47.664;9.162;2023-09-07T03:40:34;15.40;99.90
6948;DHT22;3513;47.664;9.162;2023-09-07T03:43:00;15.40;99.90
6948;DHT22;3513;47.664;9.162;2023-09-07T03:45:25;15.40;99.90
6948;DHT22;3513;47.664;9.162;2023-09-07T03:47:51;15.40;99.90
6948;DHT22;3513;47.664;9.162;2023-09-07T03:50:17;15.30;99.90
6948;DHT22;3513;47.664;9.162;2023-09-07T03:52:42;15.30;99.90
6948;DHT22;3513;47.664;9.162;2023-09-07T03:55:08;15.30;99.90
6948;DHT22;3513;47.664;9.162;2023-09-07T03:57:34;15.30;99.90
6948;DHT22;3513;47.664;9.162;2023-09-07T04:00:00;15.30;99.90
6948;DHT22;3513;47.664;9.162;2023-09-07T04:02:26;15.30;99.90
6948;DHT22;3513;47.664;9.162;2023-09-07T04:04:52;15.30;99.90
6948;DHT22;3513;47.664;9.162;2023-09-07T04:07:18;15.30;99.90
6948;DHT22;3513;47.664;9.162;2023-09-07T04:09:45;15.30;99.90
6948;DHT22;3513;47.664;9.162;2023-09-07T04:12:11;15.20;99.90
6948;DHT22;3513;47.664;9.162;2023-09-07T04:14:37;15.20;99.90
6948;DHT22;3513;47.664;9.162;2023-09-07T04:17:04;15.20;99.90
6948;DHT22;3513;47.664;9.162;2023-09-07T04:19:29;15.10;99.90
6948;DHT22;3513;47.664;9.162;2023-09-07T04:21:56;15.10;99.90
6948;DHT22;3513;47.664;9.162;2023-09-07T04:24:22;15.10;99.90
6948;DHT22;3513;47.664;9.162;2023-09-07T04:26:48;15.00;99.90
6948;DHT22;3513;47.664;9.162;2023-09-07T04:29:15;14.90;99.90
6948;DHT22;3513;47.664;9.162;2023-09-07T04:31:41;15.00;99.90
6948;DHT22;3513;47.664;9.162;2023-09-07T04:34:07;14.90;99.90
6948;DHT22;3513;47.664;9.162;2023-09-07T04:36:33;15.00;99.90
6948;DHT22;3513;47.664;9.162;2023-09-07T04:38:58;15.00;99.90
6948;DHT22;3513;47.664;9.162;2023-09-07T04:41:24;15.00;99.90
6948;DHT22;3513;47.664;9.162;2023-09-07T04:43:50;15.00;99.90
6948;DHT22;3513;47.664;9.162;2023-09-07T04:46:15;15.00;99.90
6948;DHT22;3513;47.664;9.162;2023-09-07T04:48:42;15.00;99.90
6948;DHT22;3513;47.664;9.162;2023-09-07T04:51:10;15.00;99.90
6948;DHT22;3513;47.664;9.162;2023-09-07T04:53:38;15.00;99.90
6948;DHT22;3513;47.664;9.162;2023-09-07T04:56:06;15.00;99.90
6948;DHT22;3513;47.664;9.162;2023-09-07T04:58:32;15.00;99.90
6948;DHT22;3513;47.664;9.162;2023-09-07T05:01:09;15.00;99.90
6948;DHT22;3513;47.664;9.162;2023-09-07T05:03:35;15.00;99.90
6948;DHT22;3513;47.664;9.162;2023-09-07T05:06:02;15.00;99.90
6948;DHT22;3513;47.664;9.162;2023-09-07T05:08:29;15.00;99.90
6948;DHT22;3513;47.664;9.162;2023-09-07T05:10:56;15.00;99.90
6948;DHT22;3513;47.664;9.162;2023-09-07T05:13:23;15.00;99.90
6948;DHT22;3513;47.664;9.162;2023-09-07T05:15:49;15.10;99.90
6948;DHT22;3513;47.664;9.162;2023-09-07T05:18:16;15.10;99.90
6948;DHT22;3513;47.664;9.162;2023-09-07T05:20:42;15.10;99.90
6948;DHT22;3513;47.664;9.162;2023-09-07T05:23:12;15.10;99.90
6948;DHT22;3513;47.664;9.162;2023-09-07T05:25:49;15.10;99.90
6948;DHT22;3513;47.664;9.162;2023-09-07T05:28:16;15.10;99.90
6948;DHT22;3513;47.664;9.162;2023-09-07T05:30:42;15.20;99.90
6948;DHT22;3513;47.664;9.162;2023-09-07T05:33:13;15.20;99.90
6948;DHT22;3513;47.664;9.162;2023-09-07T05:35:39;15.30;99.90
6948;DHT22;3513;47.664;9.162;2023-09-07T05:38:06;15.40;99.90
6948;DHT22;3513;47.664;9.162;2023-09-07T05:40:42;15.50;99.90
6948;DHT22;3513;47.664;9.162;2023-09-07T05:43:08;15.50;99.90
6948;DHT22;3513;47.664;9.162;2023-09-07T05:45:37;15.60;99.90
6948;DHT22;3513;47.664;9.162;2023-09-07T05:48:03;15.60;99.90
6948;DHT22;3513;47.664;9.162;2023-09-07T05:50:29;15.70;99.90
6948;DHT22;3513;47.664;9.162;2023-09-07T05:52:55;15.80;99.90
6948;DHT22;3513;47.664;9.162;2023-09-07T05:55:21;15.80;99.90
6948;DHT22;3513;47.664;9.162;2023-09-07T05:57:46;15.80;99.90
6948;DHT22;3513;47.664;9.162;2023-09-07T06:00:14;15.90;99.90
6948;DHT22;3513;47.664;9.162;2023-09-07T06:02:42;16.00;99.90
6948;DHT22;3513;47.664;9.162;2023-09-07T06:05:08;16.10;99.90
6948;DHT22;3513;47.664;9.162;2023-09-07T06:07:36;16.20;99.90
6948;DHT22;3513;47.664;9.162;2023-09-07T06:10:01;16.30;99.90
6948;DHT22;3513;47.664;9.162;2023-09-07T06:12:27;16.40;99.90
6948;DHT22;3513;47.664;9.162;2023-09-07T06:14:53;16.50;99.90
6948;DHT22;3513;47.664;9.162;2023-09-07T06:17:18;16.60;99.90
6948;DHT22;3513;47.664;9.162;2023-09-07T06:19:44;16.70;99.90
6948;DHT22;3513;47.664;9.162;2023-09-07T06:22:10;16.80;99.90
6948;DHT22;3513;47.664;9.162;2023-09-07T06:24:36;16.90;99.90
6948;DHT22;3513;47.664;9.162;2023-09-07T06:27:01;17.00;99.90
6948;DHT22;3513;47.664;9.162;2023-09-07T06:29:27;17.00;99.90
6948;DHT22;3513;47.664;9.162;2023-09-07T06:31:53;17.10;99.90
6948;DHT22;3513;47.664;9.162;2023-09-07T06:34:18;17.20;99.90
6948;DHT22;3513;47.664;9.162;2023-09-07T06:36:44;17.30;99.90
6948;DHT22;3513;47.664;9.162;2023-09-07T06:39:09;17.40;99.90
6948;DHT22;3513;47.664;9.162;2023-09-07T06:41:35;17.50;99.90
6948;DHT22;3513;47.664;9.162;2023-09-07T06:44:01;17.60;99.90
6948;DHT22;3513;47.664;9.162;2023-09-07T06:46:26;17.70;99.90
6948;DHT22;3513;47.664;9.162;2023-09-07T06:48:52;17.80;99.90
6948;DHT22;3513;47.664;9.162;2023-09-07T06:51:18;17.80;99.90
6948;DHT22;3513;47.664;9.162;2023-09-07T06:53:43;17.80;99.90
6948;DHT22;3513;47.664;9.162;2023-09-07T06:56:09;17.80;99.90
6948;DHT22;3513;47.664;9.162;2023-09-07T06:58:35;17.80;99.90
6948;DHT22;3513;47.664;9.162;2023-09-07T07:01:01;17.90;99.90
6948;DHT22;3513;47.664;9.162;2023-09-07T07:03:29;18.10;99.90
6948;DHT22;3513;47.664;9.162;2023-09-07T07:05:56;18.10;99.90
6948;DHT22;3513;47.664;9.162;2023-09-07T07:08:22;18.10;99.90
6948;DHT22;3513;47.664;9.162;2023-09-07T07:10:48;18.10;99.90
6948;DHT22;3513;47.664;9.162;2023-09-07T07:13:14;18.10;99.90
6948;DHT22;3513;47.664;9.162;2023-09-07T07:15:39;18.20;99.90
6948;DHT22;3513;47.664;9.162;2023-09-07T07:18:05;18.10;99.90
6948;DHT22;3513;47.664;9.162;2023-09-07T07:20:42;18.20;99.90
6948;DHT22;3513;47.664;9.162;2023-09-07T07:23:09;18.20;99.90
6948;DHT22;3513;47.664;9.162;2023-09-07T07:25:35;18.80;99.90
6948;DHT22;3513;47.664;9.162;2023-09-07T07:28:03;18.30;99.90
6948;DHT22;3513;47.664;9.162;2023-09-07T07:30:35;18.40;99.90
6948;DHT22;3513;47.664;9.162;2023-09-07T07:33:02;18.60;99.90
6948;DHT22;3513;47.664;9.162;2023-09-07T07:35:35;18.80;99.90
6948;DHT22;3513;47.664;9.162;2023-09-07T07:38:02;18.90;99.90
6948;DHT22;3513;47.664;9.162;2023-09-07T07:40:32;19.00;99.90
6948;DHT22;3513;47.664;9.162;2023-09-07T07:42:58;19.10;99.40
6948;DHT22;3513;47.664;9.162;2023-09-07T07:45:23;19.10;99.40
6948;DHT22;3513;47.664;9.162;2023-09-07T07:47:49;19.20;99.20
6948;DHT22;3513;47.664;9.162;2023-09-07T07:50:15;19.30;99.40
6948;DHT22;3513;47.664;9.162;2023-09-07T07:52:42;19.50;98.90
6948;DHT22;3513;47.664;9.162;2023-09-07T07:55:08;19.60;98.30
6948;DHT22;3513;47.664;9.162;2023-09-07T07:57:34;19.60;98.30
6948;DHT22;3513;47.664;9.162;2023-09-07T07:59:59;19.70;98.50
6948;DHT22;3513;47.664;9.162;2023-09-07T08:02:25;19.80;98.60
6948;DHT22;3513;47.664;9.162;2023-09-07T08:04:50;19.90;98.30
6948;DHT22;3513;47.664;9.162;2023-09-07T08:07:16;20.00;97.70
6948;DHT22;3513;47.664;9.162;2023-09-07T08:09:42;20.10;97.40
6948;DHT22;3513;47.664;9.162;2023-09-07T08:12:07;20.20;97.20
6948;DHT22;3513;47.664;9.162;2023-09-07T08:14:33;20.30;97.50
6948;DHT22;3513;47.664;9.162;2023-09-07T08:17:02;20.40;96.90
6948;DHT22;3513;47.664;9.162;2023-09-07T08:19:28;20.40;96.20
6948;DHT22;3513;47.664;9.162;2023-09-07T08:21:55;20.40;96.30
6948;DHT22;3513;47.664;9.162;2023-09-07T08:24:20;20.60;95.90
6948;DHT22;3513;47.664;9.162;2023-09-07T08:26:46;20.60;95.30
6948;DHT22;3513;47.664;9.162;2023-09-07T08:29:16;20.60;95.70
6948;DHT22;3513;47.664;9.162;2023-09-07T08:31:41;20.70;95.20
6948;DHT22;3513;47.664;9.162;2023-09-07T08:34:10;20.90;94.90
6948;DHT22;3513;47.664;9.162;2023-09-07T08:36:36;20.90;94.90
6948;DHT22;3513;47.664;9.162;2023-09-07T08:39:03;21.10;94.50
6948;DHT22;3513;47.664;9.162;2023-09-07T08:41:36;21.00;94.70
6948;DHT22;3513;47.664;9.162;2023-09-07T08:44:07;21.10;94.80
6948;DHT22;3513;47.664;9.162;2023-09-07T08:46:33;21.20;94.70
6948;DHT22;3513;47.664;9.162;2023-09-07T08:49:00;21.40;94.60
6948;DHT22;3513;47.664;9.162;2023-09-07T08:51:29;21.50;93.80
6948;DHT22;3513;47.664;9.162;2023-09-07T08:54:00;21.50;93.60
6948;DHT22;3513;47.664;9.162;2023-09-07T08:56:26;21.60;93.70
6948;DHT22;3513;47.664;9.162;2023-09-07T08:58:51;21.70;93.30
6948;DHT22;3513;47.664;9.162;2023-09-07T09:01:18;21.80;93.50
6948;DHT22;3513;47.664;9.162;2023-09-07T09:03:43;21.90;92.90
6948;DHT22;3513;47.664;9.162;2023-09-07T09:06:11;21.90;93.00
6948;DHT22;3513;47.664;9.162;2023-09-07T09:08:55;22.00;93.00
6948;DHT22;3513;47.664;9.162;2023-09-07T09:11:22;22.10;92.70
6948;DHT22;3513;47.664;9.162;2023-09-07T09:13:49;22.30;92.60
6948;DHT22;3513;47.664;9.162;2023-09-07T09:16:16;22.40;92.50
6948;DHT22;3513;47.664;9.162;2023-09-07T09:18:49;22.50;92.30
6948;DHT22;3513;47.664;9.162;2023-09-07T09:21:18;22.60;91.90
6948;DHT22;3513;47.664;9.162;2023-09-07T09:23:53;22.80;91.50
6948;DHT22;3513;47.664;9.162;2023-09-07T09:26:20;22.80;91.30
6948;DHT22;3513;47.664;9.162;2023-09-07T09:28:47;22.90;91.40
6948;DHT22;3513;47.664;9.162;2023-09-07T09:31:13;22.90;90.70
6948;DHT22;3513;47.664;9.162;2023-09-07T09:33:40;22.90;90.30
6948;DHT22;3513;47.664;9.162;2023-09-07T09:36:07;22.90;90.30
6948;DHT22;3513;47.664;9.162;2023-09-07T09:38:34;23.00;90.40
6948;DHT22;3513;47.664;9.162;2023-09-07T09:41:00;23.10;90.00
6948;DHT22;3513;47.664;9.162;2023-09-07T09:43:26;23.20;89.20
6948;DHT22;3513;47.664;9.162;2023-09-07T09:45:53;23.20;89.90
6948;DHT22;3513;47.664;9.162;2023-09-07T09:48:22;23.40;89.60
6948;DHT22;3513;47.664;9.162;2023-09-07T09:50:48;23.40;88.90
6948;DHT22;3513;47.664;9.162;2023-09-07T09:53:16;23.60;88.30
6948;DHT22;3513;47.664;9.162;2023-09-07T09:55:47;23.60;87.90
6948;DHT22;3513;47.664;9.162;2023-09-07T09:58:16;23.70;88.70
6948;DHT22;3513;47.664;9.162;2023-09-07T10:00:46;23.80;87.30
6948;DHT22;3513;47.664;9.162;2023-09-07T10:03:28;23.90;86.20
6948;DHT22;3513;47.664;9.162;2023-09-07T10:05:56;23.80;85.90
6948;DHT22;3513;47.664;9.162;2023-09-07T10:08:22;23.90;86.90
6948;DHT22;3513;47.664;9.162;2023-09-07T10:10:52;24.00;86.80
6948;DHT22;3513;47.664;9.162;2023-09-07T10:13:29;24.10;85.10
6948;DHT22;3513;47.664;9.162;2023-09-07T10:16:06;24.10;85.30
6948;DHT22;3513;47.664;9.162;2023-09-07T10:18:39;24.30;84.80
6948;DHT22;3513;47.664;9.162;2023-09-07T10:21:05;24.40;84.70
6948;DHT22;3513;47.664;9.162;2023-09-07T10:23:51;24.50;83.80
6948;DHT22;3513;47.664;9.162;2023-09-07T10:26:19;24.60;82.70
6948;DHT22;3513;47.664;9.162;2023-09-07T10:28:47;24.70;82.70
6948;DHT22;3513;47.664;9.162;2023-09-07T10:31:25;24.80;82.10
6948;DHT22;3513;47.664;9.162;2023-09-07T10:33:51;24.90;81.40
6948;DHT22;3513;47.664;9.162;2023-09-07T10:36:27;25.00;81.30
6948;DHT22;3513;47.664;9.162;2023-09-07T10:38:56;25.10;80.90
6948;DHT22;3513;47.664;9.162;2023-09-07T10:41:22;25.20;80.10
6948;DHT22;3513;47.664;9.162;2023-09-07T10:43:48;25.20;80.00
6948;DHT22;3513;47.664;9.162;2023-09-07T10:46:14;25.30;79.10
6948;DHT22;3513;47.664;9.162;2023-09-07T10:48:40;25.40;78.90
6948;DHT22;3513;47.664;9.162;2023-09-07T10:51:06;25.50;78.40
6948;DHT22;3513;47.664;9.162;2023-09-07T10:53:32;25.60;77.90
6948;DHT22;3513;47.664;9.162;2023-09-07T10:56:05;25.60;77.10
6948;DHT22;3513;47.664;9.162;2023-09-07T10:58:35;25.70;76.20
6948;DHT22;3513;47.664;9.162;2023-09-07T11:01:02;25.70;76.40
6948;DHT22;3513;47.664;9.162;2023-09-07T11:03:31;25.80;76.90
6948;DHT22;3513;47.664;9.162;2023-09-07T11:06:04;25.90;76.00
6948;DHT22;3513;47.664;9.162;2023-09-07T11:08:31;26.00;76.00
6948;DHT22;3513;47.664;9.162;2023-09-07T11:10:58;26.10;74.90
6948;DHT22;3513;47.664;9.162;2023-09-07T11:13:24;26.10;74.50
6948;DHT22;3513;47.664;9.162;2023-09-07T11:15:53;26.20;74.50
6948;DHT22;3513;47.664;9.162;2023-09-07T11:18:20;26.20;74.10
6948;DHT22;3513;47.664;9.162;2023-09-07T11:20:50;26.20;74.10
6948;DHT22;3513;47.664;9.162;2023-09-07T11:23:17;26.30;73.20
6948;DHT22;3513;47.664;9.162;2023-09-07T11:25:43;26.30;72.40
6948;DHT22;3513;47.664;9.162;2023-09-07T11:28:09;26.30;71.90
6948;DHT22;3513;47.664;9.162;2023-09-07T11:30:51;26.30;73.10
6948;DHT22;3513;47.664;9.162;2023-09-07T11:33:18;26.30;73.40
6948;DHT22;3513;47.664;9.162;2023-09-07T11:35:44;26.50;73.40
6948;DHT22;3513;47.664;9.162;2023-09-07T11:38:13;26.60;72.80
6948;DHT22;3513;47.664;9.162;2023-09-07T11:40:38;26.70;72.90
6948;DHT22;3513;47.664;9.162;2023-09-07T11:43:04;26.90;71.60
6948;DHT22;3513;47.664;9.162;2023-09-07T11:45:30;26.90;70.10
6948;DHT22;3513;47.664;9.162;2023-09-07T11:47:57;26.90;69.40
6948;DHT22;3513;47.664;9.162;2023-09-07T11:50:24;26.90;69.90
6948;DHT22;3513;47.664;9.162;2023-09-07T11:52:55;27.00;71.10
6948;DHT22;3513;47.664;9.162;2023-09-07T11:55:21;27.20;71.20
6948;DHT22;3513;47.664;9.162;2023-09-07T11:57:47;27.30;69.00
6948;DHT22;3513;47.664;9.162;2023-09-07T12:00:13;27.30;69.90
6948;DHT22;3513;47.664;9.162;2023-09-07T12:02:43;27.40;70.00
6948;DHT22;3513;47.664;9.162;2023-09-07T12:05:08;27.60;69.40
6948;DHT22;3513;47.664;9.162;2023-09-07T12:07:35;27.70;68.20
6948;DHT22;3513;47.664;9.162;2023-09-07T12:10:01;27.90;67.20
6948;DHT22;3513;47.664;9.162;2023-09-07T12:12:27;28.10;66.20
6948;DHT22;3513;47.664;9.162;2023-09-07T12:14:52;28.20;66.00
6948;DHT22;3513;47.664;9.162;2023-09-07T12:17:18;28.20;65.50
6948;DHT22;3513;47.664;9.162;2023-09-07T12:19:45;28.40;65.10
6948;DHT22;3513;47.664;9.162;2023-09-07T12:22:12;28.30;64.50
6948;DHT22;3513;47.664;9.162;2023-09-07T12:24:37;28.40;64.10
6948;DHT22;3513;47.664;9.162;2023-09-07T12:27:03;28.60;63.60
6948;DHT22;3513;47.664;9.162;2023-09-07T12:29:29;28.70;63.70
6948;DHT22;3513;47.664;9.162;2023-09-07T12:31:56;28.90;63.30
6948;DHT22;3513;47.664;9.162;2023-09-07T12:34:23;29.00;62.70
6948;DHT22;3513;47.664;9.162;2023-09-07T12:36:48;29.20;61.80
6948;DHT22;3513;47.664;9.162;2023-09-07T12:39:14;29.50;61.90
6948;DHT22;3513;47.664;9.162;2023-09-07T12:41:40;29.70;60.50
6948;DHT22;3513;47.664;9.162;2023-09-07T12:44:06;29.90;59.00
6948;DHT22;3513;47.664;9.162;2023-09-07T12:46:33;30.10;57.90
6948;DHT22;3513;47.664;9.162;2023-09-07T12:48:58;30.30;58.90
6948;DHT22;3513;47.664;9.162;2023-09-07T12:51:24;30.80;57.50
6948;DHT22;3513;47.664;9.162;2023-09-07T12:53:50;31.00;57.10
6948;DHT22;3513;47.664;9.162;2023-09-07T12:56:16;31.40;55.80
6948;DHT22;3513;47.664;9.162;2023-09-07T12:58:44;31.60;54.90
6948;DHT22;3513;47.664;9.162;2023-09-07T13:01:09;31.80;55.50
6948;DHT22;3513;47.664;9.162;2023-09-07T13:03:37;32.10;54.30
6948;DHT22;3513;47.664;9.162;2023-09-07T13:06:03;32.50;54.10
6948;DHT22;3513;47.664;9.162;2023-09-07T13:08:29;32.80;52.70
6948;DHT22;3513;47.664;9.162;2023-09-07T13:10:55;33.10;52.90
6948;DHT22;3513;47.664;9.162;2023-09-07T13:13:22;33.20;52.20
6948;DHT22;3513;47.664;9.162;2023-09-07T13:15:50;33.40;51.20
6948;DHT22;3513;47.664;9.162;2023-09-07T13:18:18;33.80;51.00
6948;DHT22;3513;47.664;9.162;2023-09-07T13:20:44;34.10;49.70
6948;DHT22;3513;47.664;9.162;2023-09-07T13:23:10;34.30;50.00
6948;DHT22;3513;47.664;9.162;2023-09-07T13:25:36;34.60;49.10
6948;DHT22;3513;47.664;9.162;2023-09-07T13:28:02;34.80;47.90
6948;DHT22;3513;47.664;9.162;2023-09-07T13:30:27;34.80;47.10
6948;DHT22;3513;47.664;9.162;2023-09-07T13:32:53;34.90;46.20
6948;DHT22;3513;47.664;9.162;2023-09-07T13:35:19;35.00;47.10
6948;DHT22;3513;47.664;9.162;2023-09-07T13:37:44;35.30;46.70
6948;DHT22;3513;47.664;9.162;2023-09-07T13:40:10;35.60;45.70
6948;DHT22;3513;47.664;9.162;2023-09-07T13:42:36;35.90;45.00
6948;DHT22;3513;47.664;9.162;2023-09-07T13:45:04;36.30;43.70
6948;DHT22;3513;47.664;9.162;2023-09-07T13:47:30;36.50;43.50
6948;DHT22;3513;47.664;9.162;2023-09-07T13:49:55;36.70;43.60
6948;DHT22;3513;47.664;9.162;2023-09-07T13:52:21;36.90;43.00
6948;DHT22;3513;47.664;9.162;2023-09-07T13:54:46;37.10;42.20
6948;DHT22;3513;47.664;9.162;2023-09-07T13:57:12;37.30;42.10
6948;DHT22;3513;47.664;9.162;2023-09-07T13:59:37;37.60;41.50
6948;DHT22;3513;47.664;9.162;2023-09-07T14:02:03;37.90;41.20
6948;DHT22;3513;47.664;9.162;2023-09-07T14:04:29;38.20;40.20
6948;DHT22;3513;47.664;9.162;2023-09-07T14:06:56;38.40;39.40
6948;DHT22;3513;47.664;9.162;2023-09-07T14:09:21;38.70;38.80
6948;DHT22;3513;47.664;9.162;2023-09-07T14:11:48;38.90;38.70
6948;DHT22;3513;47.664;9.162;2023-09-07T14:14:14;39.10;38.40
6948;DHT22;3513;47.664;9.162;2023-09-07T14:16:40;39.30;38.00
6948;DHT22;3513;47.664;9.162;2023-09-07T14:19:06;39.40;37.30
6948;DHT22;3513;47.664;9.162;2023-09-07T14:21:32;39.50;37.40
6948;DHT22;3513;47.664;9.162;2023-09-07T14:23:57;39.50;37.30
6948;DHT22;3513;47.664;9.162;2023-09-07T14:26:23;39.70;37.20
6948;DHT22;3513;47.664;9.162;2023-09-07T14:28:48;39.90;37.10
6948;DHT22;3513;47.664;9.162;2023-09-07T14:31:18;40.20;36.30
6948;DHT22;3513;47.664;9.162;2023-09-07T14:33:44;40.50;35.20
6948;DHT22;3513;47.664;9.162;2023-09-07T14:36:09;40.60;34.80
6948;DHT22;3513;47.664;9.162;2023-09-07T14:38:35;40.70;34.50
6948;DHT22;3513;47.664;9.162;2023-09-07T14:41:09;40.90;34.10
6948;DHT22;3513;47.664;9.162;2023-09-07T14:43:44;41.00;33.70
6948;DHT22;3513;47.664;9.162;2023-09-07T14:46:10;41.50;33.20
6948;DHT22;3513;47.664;9.162;2023-09-07T14:48:36;41.70;32.90
6948;DHT22;3513;47.664;9.162;2023-09-07T14:51:01;41.80;32.40
6948;DHT22;3513;47.664;9.162;2023-09-07T14:53:27;41.80;31.90
6948;DHT22;3513;47.664;9.162;2023-09-07T14:55:53;41.90;32.00
6948;DHT22;3513;47.664;9.162;2023-09-07T14:58:19;42.00;31.90
6948;DHT22;3513;47.664;9.162;2023-09-07T15:00:44;42.20;32.10
6948;DHT22;3513;47.664;9.162;2023-09-07T15:03:13;42.30;31.70
6948;DHT22;3513;47.664;9.162;2023-09-07T15:05:39;42.50;31.50
6948;DHT22;3513;47.664;9.162;2023-09-07T15:08:06;42.70;31.00
6948;DHT22;3513;47.664;9.162;2023-09-07T15:10:32;42.70;30.70
6948;DHT22;3513;47.664;9.162;2023-09-07T15:13:00;42.90;30.90
6948;DHT22;3513;47.664;9.162;2023-09-07T15:15:28;43.00;30.70
6948;DHT22;3513;47.664;9.162;2023-09-07T15:17:54;43.10;30.00
6948;DHT22;3513;47.664;9.162;2023-09-07T15:20:20;43.20;30.00
6948;DHT22;3513;47.664;9.162;2023-09-07T15:22:46;43.40;30.20
6948;DHT22;3513;47.664;9.162;2023-09-07T15:25:11;43.40;30.00
6948;DHT22;3513;47.664;9.162;2023-09-07T15:27:37;43.60;30.10
6948;DHT22;3513;47.664;9.162;2023-09-07T15:30:03;43.60;30.00
6948;DHT22;3513;47.664;9.162;2023-09-07T15:32:29;43.70;30.10
6948;DHT22;3513;47.664;9.162;2023-09-07T15:34:55;43.60;30.00
6948;DHT22;3513;47.664;9.162;2023-09-07T15:37:21;43.60;30.30
6948;DHT22;3513;47.664;9.162;2023-09-07T15:39:46;43.60;30.50
6948;DHT22;3513;47.664;9.162;2023-09-07T15:42:12;43.70;30.60
6948;DHT22;3513;47.664;9.162;2023-09-07T15:44:37;43.70;30.50
6948;DHT22;3513;47.664;9.162;2023-09-07T15:47:03;43.60;30.20
6948;DHT22;3513;47.664;9.162;2023-09-07T15:49:29;43.50;30.60
6948;DHT22;3513;47.664;9.162;2023-09-07T15:51:54;43.30;31.00
6948;DHT22;3513;47.664;9.162;2023-09-07T15:54:20;43.40;31.00
6948;DHT22;3513;47.664;9.162;2023-09-07T15:56:46;43.50;30.80
6948;DHT22;3513;47.664;9.162;2023-09-07T15:59:11;43.50;31.00